Time;durP1;ratioP1;P1;durP2;ratioP2;P2;SDS_P1;SDS_P2;PMS_P1;PMS_P2;Temp;Humidity;BMP_temperature;BMP_pressure;BME280_temperature;BME280_humidity;BME280_pressure;Samples;Min_cycle;Max_cycle;Signal;HPM_P1;HPM_P2
2021/12/09 00:01:09;;;;;;;100.43;34.10;;;1.00;99.90;;;;;;5047225;28;20040;-70
2021/12/09 00:03:40;;;;;;;95.88;33.30;;;0.90;99.90;;;;;;5031658;28;20028;-69
2021/12/09 00:06:17;;;;;;;96.20;33.00;;;1.00;99.90;;;;;;5050176;28;20581;-69
2021/12/09 00:08:43;;;;;;;96.50;31.73;;;1.00;99.90;;;;;;5049726;28;20021;-72
2021/12/09 00:11:09;;;;;;;106.88;37.22;;;1.00;99.90;;;;;;5046145;28;20410;-69
2021/12/09 00:13:35;;;;;;;102.70;33.95;;;1.00;99.90;;;;;;5061427;28;20028;-69
2021/12/09 00:16:01;;;;;;;96.63;32.40;;;1.00;99.90;;;;;;5065194;28;20032;-70
2021/12/09 00:18:27;;;;;;;101.00;34.92;;;1.00;99.90;;;;;;5053452;28;20025;-69
2021/12/09 00:20:53;;;;;;;97.82;33.33;;;1.00;99.90;;;;;;5051972;28;20025;-70
2021/12/09 00:23:19;;;;;;;100.40;34.17;;;1.00;99.90;;;;;;5052093;28;20017;-72
2021/12/09 00:25:45;;;;;;;91.70;33.58;;;1.00;99.90;;;;;;5052600;28;20098;-70
2021/12/09 00:28:11;;;;;;;104.60;35.47;;;0.90;99.90;;;;;;5052455;28;20029;-72
2021/12/09 00:30:36;;;;;;;91.25;32.63;;;0.90;99.90;;;;;;5052387;28;20398;-72
2021/12/09 00:33:05;;;;;;;102.93;34.53;;;0.90;99.90;;;;;;5052416;28;20108;-72
2021/12/09 00:35:42;;;;;;;101.00;34.97;;;0.90;99.90;;;;;;5052520;28;20056;-72
2021/12/09 00:38:10;;;;;;;99.78;34.53;;;0.90;99.90;;;;;;5048481;28;20118;-72
2021/12/09 00:40:35;;;;;;;92.28;33.20;;;0.90;99.90;;;;;;5051765;28;20028;-72
2021/12/09 00:43:02;;;;;;;101.63;35.10;;;0.90;99.90;;;;;;5052063;28;20116;-72
2021/12/09 00:45:28;;;;;;;95.15;32.05;;;0.80;99.90;;;;;;5034044;28;20021;-72
2021/12/09 00:47:53;;;;;;;99.18;34.95;;;0.80;99.90;;;;;;5052425;28;20028;-72
2021/12/09 00:50:19;;;;;;;99.57;34.72;;;0.80;99.90;;;;;;5052578;28;20029;-72
2021/12/09 00:52:46;;;;;;;113.43;36.25;;;0.80;99.90;;;;;;5051689;28;20052;-72
2021/12/09 00:55:12;;;;;;;111.95;35.88;;;0.80;99.90;;;;;;5052710;28;20027;-72
2021/12/09 00:57:39;;;;;;;104.10;35.80;;;0.80;99.90;;;;;;5052347;28;20045;-72
2021/12/09 01:00:11;;;;;;;101.10;34.88;;;0.90;99.90;;;;;;5051825;28;20039;-71
2021/12/09 01:02:37;;;;;;;108.03;34.97;;;0.90;99.90;;;;;;5052743;28;20122;-72
2021/12/09 01:05:05;;;;;;;98.53;34.92;;;0.90;99.90;;;;;;5053582;28;20032;-71
2021/12/09 01:07:31;;;;;;;99.03;34.65;;;0.80;99.90;;;;;;5053218;28;20036;-71
2021/12/09 01:09:57;;;;;;;99.55;34.85;;;0.80;99.90;;;;;;5053615;28;20025;-72
2021/12/09 01:12:22;;;;;;;116.00;38.67;;;0.80;99.90;;;;;;5052402;28;20064;-72
2021/12/09 01:14:48;;;;;;;111.45;35.83;;;0.80;99.90;;;;;;5044570;28;20028;-72
2021/12/09 01:17:13;;;;;;;110.65;37.65;;;0.80;99.90;;;;;;5052787;28;20028;-71
2021/12/09 01:19:39;;;;;;;113.07;38.58;;;0.80;99.90;;;;;;5051926;28;20112;-71
2021/12/09 01:22:06;;;;;;;122.18;36.50;;;0.80;99.90;;;;;;5050314;28;20474;-71
2021/12/09 01:24:31;;;;;;;122.53;41.00;;;0.90;99.90;;;;;;5051642;28;20029;-72
2021/12/09 01:26:58;;;;;;;102.57;33.10;;;0.90;99.90;;;;;;5054803;28;20032;-72
2021/12/09 01:29:34;;;;;;;114.43;36.10;;;0.90;99.90;;;;;;5051595;28;20025;-72
2021/12/09 01:32:03;;;;;;;106.47;36.75;;;0.80;99.90;;;;;;5053360;28;20514;-72
2021/12/09 01:34:29;;;;;;;102.80;33.85;;;0.80;99.90;;;;;;5062358;28;20578;-70
2021/12/09 01:36:55;;;;;;;100.45;35.38;;;0.80;99.90;;;;;;5069003;28;20108;-72
2021/12/09 01:39:21;;;;;;;108.38;35.83;;;0.70;99.90;;;;;;5052426;28;20036;-70
2021/12/09 01:41:47;;;;;;;112.65;36.95;;;0.70;99.90;;;;;;5063311;28;20074;-70
2021/12/09 01:44:13;;;;;;;107.65;36.45;;;0.70;99.90;;;;;;5069142;28;20012;-72
2021/12/09 01:46:39;;;;;;;104.55;36.33;;;0.70;99.90;;;;;;5049601;28;20040;-72
2021/12/09 01:49:05;;;;;;;106.22;37.25;;;0.70;99.90;;;;;;5070818;28;20028;-72
2021/12/09 01:51:31;;;;;;;111.93;38.13;;;0.80;99.90;;;;;;5068209;28;20113;-72
2021/12/09 01:53:56;;;;;;;115.45;37.38;;;0.80;99.90;;;;;;5050817;28;20029;-72
2021/12/09 01:56:25;;;;;;;108.78;38.08;;;0.80;99.90;;;;;;5049707;28;20037;-73
2021/12/09 01:58:54;;;;;;;111.53;36.67;;;0.80;99.90;;;;;;5067307;28;20017;-72
2021/12/09 02:01:19;;;;;;;122.60;39.60;;;0.80;99.90;;;;;;5071053;28;20044;-72
2021/12/09 02:03:46;;;;;;;106.70;36.13;;;0.80;99.90;;;;;;5037376;28;20025;-73
2021/12/09 02:06:12;;;;;;;107.57;37.13;;;0.90;99.90;;;;;;5033085;28;20025;-72
2021/12/09 02:08:38;;;;;;;115.57;37.30;;;0.90;99.90;;;;;;5052371;28;20032;-72
2021/12/09 02:11:03;;;;;;;116.47;38.75;;;0.80;99.90;;;;;;5034202;28;20395;-72
2021/12/09 02:13:29;;;;;;;126.78;39.75;;;0.70;99.90;;;;;;5054206;28;20023;-72
2021/12/09 02:15:56;;;;;;;122.82;40.38;;;0.70;99.90;;;;;;5053206;28;20029;-72
2021/12/09 02:18:23;;;;;;;124.20;38.78;;;0.70;99.90;;;;;;5056667;28;20071;-71
2021/12/09 02:21:13;;;;;;;105.10;37.72;;;0.60;99.90;;;;;;5052561;28;20111;-72
2021/12/09 02:23:50;;;;;;;127.32;38.95;;;0.60;99.90;;;;;;5058372;28;20036;-72
2021/12/09 02:26:20;;;;;;;116.63;39.58;;;0.60;99.90;;;;;;5051053;28;20155;-71
2021/12/09 02:28:46;;;;;;;115.72;39.05;;;0.60;99.90;;;;;;5046939;28;20051;-72
2021/12/09 02:31:12;;;;;;;120.05;40.55;;;0.60;99.90;;;;;;5067418;28;20031;-71
2021/12/09 02:33:39;;;;;;;124.20;39.00;;;0.60;99.90;;;;;;5062325;28;20035;-71
2021/12/09 02:36:05;;;;;;;118.47;41.00;;;0.60;99.90;;;;;;5050498;28;20390;-72
2021/12/09 02:38:31;;;;;;;121.55;41.08;;;0.50;99.90;;;;;;5051764;28;20406;-72
2021/12/09 02:40:57;;;;;;;121.32;39.25;;;0.40;99.90;;;;;;5057281;28;20031;-71
2021/12/09 02:43:28;;;;;;;125.72;42.70;;;0.50;99.90;;;;;;5050644;28;20033;-71
2021/12/09 02:45:56;;;;;;;116.68;39.80;;;0.50;99.90;;;;;;5056660;28;20017;-73
2021/12/09 02:48:23;;;;;;;114.03;38.75;;;0.50;99.90;;;;;;5062134;28;20108;-72
2021/12/09 02:50:50;;;;;;;115.68;38.30;;;0.60;99.90;;;;;;5074333;28;20025;-72
2021/12/09 02:53:17;;;;;;;118.05;38.88;;;0.60;99.90;;;;;;5055633;28;20079;-71
2021/12/09 02:55:43;;;;;;;116.88;39.53;;;0.60;99.90;;;;;;5062926;28;20028;-71
2021/12/09 02:58:09;;;;;;;120.13;40.35;;;0.60;99.90;;;;;;5068864;28;20017;-72
2021/12/09 03:00:51;;;;;;;118.05;39.38;;;0.60;99.90;;;;;;5053916;28;20603;-69
2021/12/09 03:03:17;;;;;;;120.85;40.83;;;0.60;99.90;;;;;;5033765;28;20025;-71
2021/12/09 03:05:45;;;;;;;122.10;40.30;;;0.60;99.90;;;;;;5071588;28;20024;-71
2021/12/09 03:08:11;;;;;;;131.07;40.70;;;0.70;99.90;;;;;;5066006;28;20017;-72
2021/12/09 03:10:37;;;;;;;119.10;39.25;;;0.80;99.90;;;;;;5055092;28;20039;-70
2021/12/09 03:13:09;;;;;;;122.20;40.33;;;0.80;99.90;;;;;;5053713;28;20068;-72
2021/12/09 03:15:35;;;;;;;124.13;39.40;;;0.70;99.90;;;;;;5066411;28;20021;-69
2021/12/09 03:18:00;;;;;;;120.88;39.53;;;0.70;99.90;;;;;;5054148;28;20098;-71
2021/12/09 03:20:30;;;;;;;121.10;39.08;;;0.70;99.90;;;;;;5058239;28;20055;-71
2021/12/09 03:22:55;;;;;;;122.93;38.17;;;0.70;99.90;;;;;;5055422;28;20067;-70
2021/12/09 03:25:21;;;;;;;124.68;40.00;;;0.70;99.90;;;;;;5059141;28;20049;-73
2021/12/09 03:27:48;;;;;;;115.13;37.95;;;0.60;99.90;;;;;;5054672;28;20040;-73
2021/12/09 03:30:16;;;;;;;121.60;41.95;;;0.60;99.90;;;;;;5054916;28;20094;-73
2021/12/09 03:32:43;;;;;;;117.75;40.33;;;0.60;99.90;;;;;;5055924;28;20505;-74
2021/12/09 03:35:10;;;;;;;125.78;42.47;;;0.70;99.90;;;;;;5057726;28;20024;-73
2021/12/09 03:37:35;;;;;;;129.05;40.55;;;0.70;99.90;;;;;;5055815;28;20032;-73
2021/12/09 03:40:01;;;;;;;120.40;42.28;;;0.80;99.90;;;;;;5059416;28;20372;-73
2021/12/09 03:42:30;;;;;;;127.32;41.85;;;0.80;99.90;;;;;;5054819;28;20378;-73
2021/12/09 03:44:56;;;;;;;118.63;41.72;;;0.80;99.90;;;;;;5070136;28;20111;-72
2021/12/09 03:47:26;;;;;;;121.50;41.63;;;0.80;99.90;;;;;;5059489;28;20154;-71
2021/12/09 03:49:52;;;;;;;127.13;39.80;;;0.80;99.90;;;;;;5053951;28;20461;-72
2021/12/09 03:52:18;;;;;;;115.55;39.72;;;0.70;99.90;;;;;;5053883;28;20021;-72
2021/12/09 03:54:44;;;;;;;118.53;40.58;;;0.70;99.90;;;;;;5097208;22;20068;-70
2021/12/09 03:57:12;;;;;;;125.43;39.88;;;0.70;99.90;;;;;;5073005;28;20086;-70
2021/12/09 03:59:39;;;;;;;130.68;41.78;;;0.70;99.90;;;;;;5072965;28;20474;-69
2021/12/09 04:02:06;;;;;;;123.13;42.90;;;0.70;99.90;;;;;;5073018;28;20501;-69
2021/12/09 04:04:32;;;;;;;117.38;40.90;;;0.70;99.90;;;;;;5066346;28;20014;-71
2021/12/09 04:06:58;;;;;;;118.03;40.88;;;0.70;99.90;;;;;;5035476;28;20080;-69
2021/12/09 04:09:25;;;;;;;119.32;40.30;;;0.70;99.90;;;;;;5073190;28;20068;-70
2021/12/09 04:11:52;;;;;;;122.25;39.30;;;1.00;99.90;;;;;;5061407;28;20060;-70
2021/12/09 04:14:19;;;;;;;116.93;39.45;;;0.80;99.90;;;;;;5054078;28;20055;-69
2021/12/09 04:16:45;;;;;;;122.03;39.75;;;0.80;99.90;;;;;;5052972;28;20029;-70
2021/12/09 04:19:11;;;;;;;110.60;38.88;;;0.80;99.90;;;;;;5054035;28;20040;-70
2021/12/09 04:21:38;;;;;;;124.03;39.75;;;0.80;99.90;;;;;;5056338;28;20064;-69
2021/12/09 04:24:07;;;;;;;126.40;42.42;;;2.30;99.90;;;;;;5069700;28;20033;-69
2021/12/09 04:26:38;;;;;;;114.25;38.05;;;-0.60;99.90;;;;;;5052860;28;20495;-70
2021/12/09 04:29:06;;;;;;;113.80;39.75;;;0.70;99.90;;;;;;5052933;28;20029;-70
2021/12/09 04:31:32;;;;;;;112.90;39.97;;;0.70;99.90;;;;;;5053880;28;20029;-70
2021/12/09 04:33:58;;;;;;;116.13;36.83;;;0.60;99.90;;;;;;5053472;28;20036;-69
2021/12/09 04:36:25;;;;;;;125.53;41.00;;;0.70;99.90;;;;;;5072811;28;20078;-70
2021/12/09 04:38:52;;;;;;;119.35;40.33;;;0.60;99.90;;;;;;5059230;28;20083;-71
2021/12/09 04:41:19;;;;;;;116.03;37.65;;;0.70;99.90;;;;;;5053516;28;20086;-69
2021/12/09 04:43:45;;;;;;;110.60;39.45;;;0.60;99.90;;;;;;5072152;28;20035;-69
2021/12/09 04:46:11;;;;;;;108.53;38.35;;;1.00;99.90;;;;;;5055246;28;20367;-69
2021/12/09 04:48:37;;;;;;;108.60;36.63;;;0.70;99.90;;;;;;5061593;28;20043;-70
2021/12/09 04:51:03;;;;;;;116.93;40.53;;;0.70;99.90;;;;;;5072489;28;20024;-70
2021/12/09 04:53:29;;;;;;;113.85;38.05;;;0.70;99.90;;;;;;5066955;28;20013;-69
2021/12/09 04:55:55;;;;;;;111.05;38.85;;;0.60;99.90;;;;;;5052367;28;20548;-68
2021/12/09 04:58:23;;;;;;;117.20;37.83;;;0.70;99.90;;;;;;5052328;28;20025;-69
2021/12/09 05:00:49;;;;;;;117.38;38.15;;;0.60;99.90;;;;;;5053162;28;20063;-70
2021/12/09 05:03:16;;;;;;;125.35;39.17;;;0.60;99.90;;;;;;5051136;28;20025;-70
2021/12/09 05:05:47;;;;;;;125.47;40.15;;;0.60;99.90;;;;;;5070653;28;20029;-69
2021/12/09 05:08:16;;;;;;;119.72;38.17;;;0.70;99.90;;;;;;5062418;28;20050;-69
2021/12/09 05:11:07;;;;;;;128.32;42.80;;;0.60;99.90;;;;;;5056859;28;20366;-70
2021/12/09 05:13:36;;;;;;;117.90;39.35;;;0.70;99.90;;;;;;5045593;28;20029;-70
2021/12/09 05:16:04;;;;;;;117.45;40.00;;;0.70;99.90;;;;;;5071811;28;20600;-68
2021/12/09 05:18:32;;;;;;;117.80;40.63;;;1.20;99.90;;;;;;5071593;28;20078;-70
2021/12/09 05:20:58;;;;;;;117.70;38.10;;;0.70;99.90;;;;;;5031801;28;20084;-67
2021/12/09 05:23:24;;;;;;;122.43;39.53;;;0.70;99.90;;;;;;5054191;28;20013;-70
2021/12/09 05:25:50;;;;;;;107.65;38.55;;;0.70;99.90;;;;;;5070798;28;20039;-70
2021/12/09 05:28:17;;;;;;;119.82;38.60;;;0.70;99.90;;;;;;5051511;28;20541;-71
2021/12/09 05:33:30;;;;;;;112.38;37.05;;;0.60;99.90;;;;;;5061841;28;20063;-70
2021/12/09 05:35:55;;;;;;;114.05;37.55;;;0.50;99.90;;;;;;5052340;28;20044;-70
2021/12/09 05:38:21;;;;;;;109.85;37.17;;;0.50;99.90;;;;;;5051480;28;20109;-70
2021/12/09 05:40:48;;;;;;;112.95;38.50;;;0.50;99.90;;;;;;5051109;28;20029;-70
2021/12/09 05:43:14;;;;;;;105.88;37.63;;;0.50;99.90;;;;;;5059257;28;20039;-70
2021/12/09 05:45:41;;;;;;;107.45;37.92;;;0.50;99.90;;;;;;5071396;28;20485;-70
2021/12/09 05:48:07;;;;;;;116.13;40.70;;;0.60;99.90;;;;;;5055702;28;20029;-71
2021/12/09 05:50:34;;;;;;;114.10;39.90;;;0.60;99.90;;;;;;5059711;28;20044;-69
2021/12/09 05:52:59;;;;;;;115.88;40.15;;;0.60;99.90;;;;;;5067069;28;20032;-69
2021/12/09 05:55:25;;;;;;;112.45;39.13;;;0.90;99.90;;;;;;5052943;28;20033;-71
2021/12/09 05:57:51;;;;;;;109.85;36.38;;;0.60;99.90;;;;;;5067621;28;20035;-73
2021/12/09 06:00:17;;;;;;;118.47;40.10;;;0.60;99.90;;;;;;5064638;28;20021;-72
2021/12/09 06:02:43;;;;;;;115.13;38.03;;;0.60;99.90;;;;;;5067060;28;20047;-72
2021/12/09 06:05:09;;;;;;;119.03;38.50;;;0.60;99.90;;;;;;5065979;28;20024;-70
2021/12/09 06:07:35;;;;;;;116.60;40.25;;;0.70;99.90;;;;;;5053305;28;20024;-69
2021/12/09 06:10:03;;;;;;;120.10;40.63;;;0.70;99.90;;;;;;5056070;28;20024;-70
2021/12/09 06:12:29;;;;;;;118.22;38.58;;;0.70;99.90;;;;;;5067221;28;20028;-70
2021/12/09 06:14:55;;;;;;;113.10;41.40;;;0.70;99.90;;;;;;5060279;28;20108;-70
2021/12/09 06:17:20;;;;;;;120.45;42.05;;;0.60;99.90;;;;;;5054971;28;20064;-70
2021/12/09 06:19:46;;;;;;;123.07;40.50;;;0.70;99.90;;;;;;5055393;28;20035;-69
2021/12/09 06:22:11;;;;;;;124.30;39.33;;;0.70;99.90;;;;;;5066335;28;20394;-70
2021/12/09 06:24:37;;;;;;;127.70;40.53;;;0.80;99.90;;;;;;5058958;28;20032;-70
2021/12/09 06:27:03;;;;;;;115.15;39.70;;;0.90;99.90;;;;;;5054884;28;20032;-70
2021/12/09 06:29:32;;;;;;;122.57;40.78;;;0.90;99.90;;;;;;5055589;28;20017;-70
2021/12/09 06:31:57;;;;;;;113.75;38.78;;;0.90;99.90;;;;;;5059061;28;20028;-69
2021/12/09 06:34:23;;;;;;;117.50;40.83;;;0.90;99.90;;;;;;5054409;28;20029;-70
2021/12/09 06:36:49;;;;;;;128.73;40.55;;;0.90;99.90;;;;;;5054347;28;20024;-70
2021/12/09 06:39:14;;;;;;;119.55;38.20;;;0.90;99.90;;;;;;5072231;28;20076;-69
2021/12/09 06:41:40;;;;;;;121.10;41.00;;;0.90;99.90;;;;;;5068143;28;20048;-67
2021/12/09 06:44:06;;;;;;;125.40;42.05;;;0.90;99.90;;;;;;5051228;28;20141;-70
2021/12/09 06:46:31;;;;;;;124.95;42.58;;;0.90;99.90;;;;;;5054308;28;20029;-69
2021/12/09 06:48:57;;;;;;;126.22;43.85;;;0.90;99.90;;;;;;5055430;28;20377;-73
2021/12/09 06:51:24;;;;;;;127.32;41.97;;;0.90;99.90;;;;;;5055708;28;20104;-70
2021/12/09 06:53:49;;;;;;;131.27;44.42;;;0.90;99.90;;;;;;5053391;28;20128;-70
2021/12/09 06:56:15;;;;;;;126.80;42.60;;;1.40;99.90;;;;;;5055825;28;20033;-70
2021/12/09 06:58:41;;;;;;;133.57;44.60;;;1.00;99.90;;;;;;5050615;28;20033;-67
2021/12/09 07:01:07;;;;;;;131.52;43.03;;;1.00;99.90;;;;;;5053524;28;20028;-68
2021/12/09 07:03:34;;;;;;;137.27;44.60;;;1.00;99.90;;;;;;5067674;28;20073;-68
2021/12/09 07:06:05;;;;;;;130.77;44.28;;;0.90;99.90;;;;;;5049453;28;20113;-68
2021/12/09 07:08:32;;;;;;;133.40;43.92;;;0.90;99.90;;;;;;5054099;28;20032;-68
2021/12/09 07:10:58;;;;;;;133.20;44.13;;;0.90;99.90;;;;;;5053716;28;20424;-67
2021/12/09 07:13:23;;;;;;;132.70;43.88;;;0.90;99.90;;;;;;5053485;28;20090;-68
2021/12/09 07:15:49;;;;;;;120.43;42.70;;;0.90;99.90;;;;;;5065814;28;20028;-68
2021/12/09 07:18:15;;;;;;;131.85;43.08;;;0.90;99.90;;;;;;5053434;28;20154;-69
2021/12/09 07:20:40;;;;;;;133.80;44.58;;;0.90;99.90;;;;;;5051609;28;20093;-70
2021/12/09 07:23:06;;;;;;;138.55;43.10;;;1.10;99.90;;;;;;5050841;28;20036;-67
2021/12/09 07:25:31;;;;;;;135.73;46.30;;;0.90;99.90;;;;;;5051270;28;20390;-68
2021/12/09 07:27:58;;;;;;;145.57;45.25;;;1.50;99.90;;;;;;5055437;28;20035;-69
2021/12/09 07:30:26;;;;;;;142.00;47.58;;;0.90;99.90;;;;;;5054694;28;20123;-68
2021/12/09 07:32:51;;;;;;;144.80;45.95;;;1.00;99.90;;;;;;5050340;28;20029;-73
2021/12/09 07:35:17;;;;;;;149.77;46.65;;;1.00;99.90;;;;;;5049069;28;20017;-69
2021/12/09 07:37:44;;;;;;;144.43;49.03;;;1.00;99.90;;;;;;5049410;28;20388;-74
2021/12/09 07:40:13;;;;;;;141.48;45.45;;;1.00;99.90;;;;;;5050293;28;20029;-69
2021/12/09 07:42:39;;;;;;;137.88;47.63;;;1.00;99.90;;;;;;5049998;28;20033;-70
2021/12/09 07:45:06;;;;;;;126.03;41.88;;;1.10;99.90;;;;;;5049227;28;20021;-67
2021/12/09 07:47:32;;;;;;;139.15;47.75;;;1.10;99.90;;;;;;5047832;28;20121;-69
2021/12/09 07:49:57;;;;;;;136.25;48.75;;;1.00;99.90;;;;;;5048201;28;20104;-70
2021/12/09 07:52:23;;;;;;;142.98;45.00;;;1.10;99.90;;;;;;5047289;28;20032;-69
2021/12/09 07:54:49;;;;;;;133.00;45.38;;;1.10;99.90;;;;;;5048699;28;20491;-74
2021/12/09 07:57:14;;;;;;;129.80;44.10;;;1.20;99.90;;;;;;5050642;28;20526;-68
2021/12/09 07:59:40;;;;;;;131.20;43.30;;;1.10;99.90;;;;;;5047725;28;20028;-71
2021/12/09 08:02:06;;;;;;;133.25;43.95;;;1.10;99.90;;;;;;5045511;28;20029;-68
2021/12/09 08:04:33;;;;;;;135.77;44.53;;;1.10;99.90;;;;;;5030022;28;20166;-69
2021/12/09 08:06:59;;;;;;;131.43;43.90;;;1.10;99.90;;;;;;5047435;28;20024;-73
2021/12/09 08:09:24;;;;;;;125.85;42.03;;;1.10;99.90;;;;;;5048350;28;20014;-71
2021/12/09 08:11:50;;;;;;;134.90;42.00;;;1.10;99.90;;;;;;5047070;28;20509;-70
2021/12/09 08:14:18;;;;;;;135.82;42.50;;;1.10;99.90;;;;;;5049009;28;20029;-74
2021/12/09 08:16:44;;;;;;;134.38;44.67;;;1.00;99.90;;;;;;5059566;28;20041;-68
2021/12/09 08:19:12;;;;;;;134.27;47.60;;;1.00;99.90;;;;;;5056390;28;20017;-72
2021/12/09 08:21:39;;;;;;;147.15;46.33;;;0.90;99.90;;;;;;5045620;28;20566;-72
2021/12/09 08:24:07;;;;;;;145.73;48.97;;;1.00;99.90;;;;;;5046613;28;20074;-69
2021/12/09 08:26:33;;;;;;;142.32;47.13;;;1.00;99.90;;;;;;5028094;28;20025;-69
2021/12/09 08:29:00;;;;;;;142.25;46.53;;;1.20;99.90;;;;;;5046724;28;20033;-71
2021/12/09 08:31:29;;;;;;;135.27;45.95;;;1.00;99.90;;;;;;5046806;28;20013;-69
2021/12/09 08:33:55;;;;;;;157.18;51.00;;;1.00;99.90;;;;;;5046720;28;20021;-68
2021/12/09 08:36:21;;;;;;;150.65;48.90;;;0.90;99.90;;;;;;5029964;28;20036;-74
2021/12/09 08:38:46;;;;;;;141.50;46.15;;;1.00;99.90;;;;;;5047226;28;20033;-69
2021/12/09 08:41:14;;;;;;;141.90;46.10;;;1.00;99.90;;;;;;5053859;28;20051;-70
2021/12/09 08:43:40;;;;;;;136.00;46.80;;;1.10;99.90;;;;;;5045499;28;20024;-71
2021/12/09 08:46:05;;;;;;;130.55;45.25;;;1.20;99.90;;;;;;5046899;28;20236;-69
2021/12/09 08:48:31;;;;;;;139.98;45.22;;;;;;;;;;5046022;28;20036;-71
2021/12/09 08:50:57;;;;;;;125.43;44.67;;;2.00;99.90;;;;;;5047561;28;20113;-68
2021/12/09 08:53:25;;;;;;;133.07;44.30;;;1.10;99.90;;;;;;5046562;28;20021;-70
2021/12/09 08:55:51;;;;;;;136.00;44.95;;;2.80;99.90;;;;;;5048102;28;20056;-74
2021/12/09 08:58:17;;;;;;;132.75;44.65;;;1.20;99.90;;;;;;5048489;28;20031;-70
2021/12/09 09:00:44;;;;;;;150.13;47.72;;;1.20;99.90;;;;;;5048152;28;20037;-68
2021/12/09 09:03:10;;;;;;;144.88;47.08;;;1.30;99.90;;;;;;5048925;28;20013;-67
2021/12/09 09:05:37;;;;;;;135.45;48.47;;;1.30;99.90;;;;;;5048091;28;20029;-68
2021/12/09 09:08:04;;;;;;;139.38;47.05;;;1.30;99.90;;;;;;5030912;28;20028;-71
2021/12/09 09:10:32;;;;;;;146.80;50.15;;;1.40;99.90;;;;;;5049779;28;20107;-70
2021/12/09 09:12:59;;;;;;;153.70;51.00;;;1.50;99.90;;;;;;5052567;28;20029;-66
2021/12/09 09:15:27;;;;;;;144.25;48.10;;;1.50;99.90;;;;;;5041741;28;20077;-71
2021/12/09 09:17:53;;;;;;;146.52;47.65;;;1.70;99.90;;;;;;5034001;28;20025;-69
2021/12/09 09:20:23;;;;;;;125.88;44.38;;;1.70;99.90;;;;;;5048360;28;20120;-69
2021/12/09 09:22:48;;;;;;;126.72;44.72;;;2.00;99.90;;;;;;5039019;28;20678;-71
2021/12/09 09:25:19;;;;;;;128.10;45.42;;;1.80;99.90;;;;;;5021933;28;20038;-69
2021/12/09 09:27:45;;;;;;;124.07;43.92;;;1.80;99.90;;;;;;5043319;28;20483;-67
2021/12/09 09:30:14;;;;;;;125.75;43.42;;;1.80;99.90;;;;;;5042523;28;20163;-70
2021/12/09 09:32:41;;;;;;;127.35;44.75;;;1.70;99.90;;;;;;5043073;28;20020;-71
2021/12/09 09:35:08;;;;;;;130.98;45.92;;;1.80;99.90;;;;;;5041949;28;20110;-68
2021/12/09 09:37:34;;;;;;;132.05;47.45;;;1.70;99.90;;;;;;5041895;28;20064;-68
2021/12/09 09:40:01;;;;;;;135.00;46.78;;;1.70;99.90;;;;;;5043621;28;20307;-70
2021/12/09 09:42:45;;;;;;;125.35;47.08;;;1.80;99.90;;;;;;5038408;28;20027;-70
2021/12/09 09:45:14;;;;;;;140.25;48.20;;;1.90;99.90;;;;;;5042968;28;20115;-68
2021/12/09 09:47:40;;;;;;;139.90;48.97;;;2.00;99.90;;;;;;5042561;28;20418;-69
2021/12/09 09:50:08;;;;;;;140.50;48.72;;;2.00;99.90;;;;;;5033051;28;20479;-68
2021/12/09 09:52:35;;;;;;;137.05;46.03;;;2.10;99.90;;;;;;5024288;28;20033;-69
2021/12/09 09:55:05;;;;;;;138.73;45.72;;;2.20;99.90;;;;;;5044573;28;20671;-67
2021/12/09 09:57:31;;;;;;;152.57;46.83;;;2.30;99.90;;;;;;5037690;28;20498;-73
2021/12/09 09:59:56;;;;;;;123.68;46.33;;;2.50;99.90;;;;;;5041238;28;20100;-73
2021/12/09 10:02:22;;;;;;;115.43;42.78;;;2.70;99.90;;;;;;5049298;28;20487;-68
2021/12/09 10:04:49;;;;;;;122.47;45.05;;;2.80;99.90;;;;;;5051354;28;20534;-71
2021/12/09 10:07:20;;;;;;;125.40;47.67;;;2.90;99.90;;;;;;5045627;28;20055;-66
2021/12/09 10:09:47;;;;;;;115.55;43.60;;;3.00;99.90;;;;;;5043065;28;20025;-68
2021/12/09 10:12:15;;;;;;;115.80;44.13;;;3.00;99.90;;;;;;5037490;28;20076;-70
2021/12/09 10:14:46;;;;;;;109.43;42.78;;;3.00;99.90;;;;;;5046446;28;20470;-68
2021/12/09 10:17:14;;;;;;;104.32;41.05;;;2.80;99.90;;;;;;5029600;28;20021;-68
2021/12/09 10:19:50;;;;;;;105.93;41.35;;;2.70;99.90;;;;;;5028004;28;20052;-70
2021/12/09 10:22:38;;;;;;;108.40;41.03;;;2.50;99.90;;;;;;5045147;28;20120;-69
2021/12/09 10:25:21;;;;;;;113.55;43.17;;;2.50;99.90;;;;;;5045524;28;20521;-68
2021/12/09 10:28:00;;;;;;;107.90;39.63;;;2.40;99.90;;;;;;5046415;28;20475;-70
2021/12/09 10:30:25;;;;;;;107.68;40.63;;;2.20;99.90;;;;;;5046416;28;20014;-68
2021/12/09 10:32:59;;;;;;;111.75;42.90;;;1.90;99.90;;;;;;5045319;28;20033;-69
2021/12/09 10:35:25;;;;;;;118.50;43.72;;;2.20;99.90;;;;;;5039106;28;20029;-68
2021/12/09 10:37:51;;;;;;;126.18;46.10;;;2.20;99.90;;;;;;5046604;28;20037;-70
2021/12/09 10:40:19;;;;;;;120.93;43.63;;;2.20;99.90;;;;;;5045576;28;20032;-68
2021/12/09 10:42:58;;;;;;;111.00;43.20;;;2.30;99.90;;;;;;5044148;28;20486;-67
2021/12/09 10:45:30;;;;;;;117.57;42.33;;;2.40;99.90;;;;;;5035888;28;20107;-70
2021/12/09 10:48:19;;;;;;;111.07;42.10;;;2.40;99.90;;;;;;5040288;28;20439;-69
2021/12/09 10:51:12;;;;;;;119.20;41.90;;;4.80;99.90;;;;;;5040267;28;20033;-68
2021/12/09 10:53:47;;;;;;;110.05;42.30;;;2.20;99.90;;;;;;5046096;28;20033;-71
2021/12/09 10:56:22;;;;;;;;;;;2.20;99.90;;;;;;5042399;28;20104;-70
2021/12/09 10:58:49;;;;;;;104.80;38.53;;;2.20;99.90;;;;;;5041493;28;20274;-68
2021/12/09 11:01:20;;;;;;;117.15;42.47;;;2.20;99.90;;;;;;5040308;28;20098;-70
2021/12/09 11:03:55;;;;;;;108.95;39.30;;;2.20;99.90;;;;;;5027930;28;20118;-70
2021/12/09 11:06:38;;;;;;;107.95;40.15;;;2.20;99.90;;;;;;5024645;28;20474;-70
2021/12/09 11:09:07;;;;;;;100.75;38.88;;;2.30;99.90;;;;;;5046712;28;20032;-70
2021/12/09 11:11:41;;;;;;;105.60;39.17;;;2.40;99.90;;;;;;5045230;28;20025;-71
2021/12/09 11:14:18;;;;;;;107.50;38.72;;;2.30;99.90;;;;;;5053911;28;20031;-69
2021/12/09 11:16:59;;;;;;;119.65;40.85;;;2.40;99.90;;;;;;5049973;28;20063;-69
2021/12/09 11:19:36;;;;;;;110.75;40.80;;;2.30;99.90;;;;;;5030355;28;20406;-71
2021/12/09 11:22:05;;;;;;;106.57;39.88;;;2.10;99.90;;;;;;5045285;28;20087;-70
2021/12/09 11:24:36;;;;;;;105.82;40.72;;;2.30;99.90;;;;;;5055803;28;20021;-70
2021/12/09 11:27:05;;;;;;;111.55;40.22;;;3.30;99.90;;;;;;5037449;28;20028;-67
2021/12/09 11:29:47;;;;;;;100.43;40.75;;;2.50;99.90;;;;;;5044094;28;20045;-67
2021/12/09 11:32:29;;;;;;;100.80;38.58;;;2.70;99.90;;;;;;5044368;28;20033;-68
2021/12/09 11:39:54;;;;;;;106.72;41.03;;;2.80;99.90;;;;;;5043969;28;20538;-69
2021/12/09 11:42:50;;;;;;;100.68;39.38;;;2.70;99.90;;;;;;5044307;28;20025;-71
2021/12/09 11:45:13;;;;;;;112.95;41.13;;;3.40;99.90;;;;;;5040246;28;20045;-70
2021/12/09 11:47:43;;;;;;;96.57;39.55;;;2.80;99.90;;;;;;5044109;28;20032;-70
2021/12/09 11:50:18;;;;;;;98.43;38.55;;;2.70;99.90;;;;;;5044293;28;20032;-69
2021/12/09 11:52:45;;;;;;;103.88;38.88;;;2.70;99.90;;;;;;5043612;28;20017;-70
2021/12/09 11:55:17;;;;;;;102.97;39.88;;;2.80;99.90;;;;;;5043164;28;20033;-72
2021/12/09 11:58:04;;;;;;;103.28;39.97;;;2.80;99.90;;;;;;5044630;28;20032;-73
2021/12/09 12:15:30;;;;;;;107.75;40.45;;;3.50;99.90;;;;;;5046568;28;20080;-68
2021/12/09 12:21:42;;;;;;;97.35;38.50;;;3.10;99.90;;;;;;5033176;28;20120;-73
2021/12/09 12:23:53;;;;;;;102.40;39.15;;;3.20;99.90;;;;;;5029680;28;20416;-72
2021/12/09 12:32:57;;;;;;;96.18;38.00;;;3.20;99.90;;;;;;5040642;28;20009;-70
2021/12/09 12:40:48;;;;;;;104.53;40.63;;;2.80;99.90;;;;;;5043010;28;20125;-71
2021/12/09 12:43:50;;;;;;;107.97;41.43;;;2.70;99.90;;;;;;5043672;28;20565;-71
2021/12/09 12:46:58;;;;;;;112.13;41.78;;;2.60;99.90;;;;;;5016569;28;20033;-70
2021/12/09 12:49:35;;;;;;;117.57;40.45;;;2.50;99.90;;;;;;5042814;28;20121;-70
2021/12/09 12:52:20;;;;;;;115.18;41.22;;;2.50;99.90;;;;;;5031099;28;20661;-72
2021/12/09 12:54:58;;;;;;;102.00;40.72;;;2.50;99.90;;;;;;5038152;28;20036;-69
2021/12/09 12:57:31;;;;;;;108.93;40.58;;;2.50;99.90;;;;;;5022846;28;20052;-69
2021/12/09 13:00:16;;;;;;;116.28;42.38;;;2.50;99.90;;;;;;5030657;28;20431;-70
2021/12/09 13:05:33;;;;;;;106.97;41.28;;;2.50;99.90;;;;;;5048991;28;20175;-74
2021/12/09 13:08:21;;;;;;;116.30;43.20;;;2.50;99.90;;;;;;5039187;28;20569;-74
2021/12/09 13:13:39;;;;;;;106.00;40.97;;;2.60;99.90;;;;;;5051569;28;20343;-73
2021/12/09 13:16:17;;;;;;;108.38;39.60;;;2.50;99.90;;;;;;5049347;28;20020;-75
2021/12/09 13:19:00;;;;;;;114.80;42.95;;;2.40;99.90;;;;;;5064173;28;20081;-73